createdAt,value
2019-04-29T00:00:10.826Z,100.00
2019-04-29T00:02:39.296Z,100.00
2019-04-29T00:05:08.799Z,100.00
2019-04-29T00:07:37.439Z,100.00
2019-04-29T00:10:07.379Z,100.00
2019-04-29T00:12:35.855Z,100.00
2019-04-29T00:15:07.963Z,100.00
2019-04-29T00:17:43.471Z,100.00
2019-04-29T00:20:16.393Z,100.00
2019-04-29T00:22:44.803Z,100.00
2019-04-29T00:25:13.367Z,100.00
2019-04-29T00:27:42.155Z,100.00
2019-04-29T00:30:12.315Z,100.00
2019-04-29T00:32:40.693Z,100.00
2019-04-29T00:35:09.200Z,100.00
2019-04-29T00:37:39.240Z,100.00
2019-04-29T00:40:26.023Z,100.00
2019-04-29T00:42:56.077Z,100.00
2019-04-29T00:45:25.174Z,100.00
2019-04-29T00:47:53.578Z,100.00
2019-04-29T00:50:22.013Z,100.00
2019-04-29T00:52:50.493Z,100.00
2019-04-29T00:55:23.539Z,100.00
2019-04-29T00:57:51.942Z,100.00
2019-04-29T01:00:28.274Z,100.00
2019-04-29T01:02:56.684Z,100.00
2019-04-29T01:05:25.257Z,100.00
2019-04-29T01:07:53.662Z,100.00
2019-04-29T01:10:22.094Z,100.00
2019-04-29T01:12:50.573Z,100.00
2019-04-29T01:15:19.003Z,100.00
2019-04-29T01:17:47.411Z,100.00
2019-04-29T01:20:16.027Z,100.00
2019-04-29T01:22:44.501Z,100.00
2019-04-29T01:25:13.076Z,100.00
2019-04-29T01:27:48.741Z,100.00
2019-04-29T01:30:38.507Z,100.00
2019-04-29T01:33:06.986Z,100.00
2019-04-29T01:35:35.393Z,100.00
2019-04-29T01:38:03.823Z,100.00
2019-04-29T01:40:33.871Z,100.00
2019-04-29T01:43:02.303Z,100.00
2019-04-29T01:45:30.715Z,100.00
2019-04-29T01:47:59.140Z,100.00
2019-04-29T01:50:27.548Z,100.00
2019-04-29T01:52:55.981Z,100.00
2019-04-29T01:55:24.389Z,100.00
2019-04-29T01:57:52.815Z,100.00
2019-04-29T02:00:21.291Z,100.00
2019-04-29T02:02:49.723Z,100.00
2019-04-29T02:05:18.204Z,100.00
2019-04-29T02:07:46.634Z,100.00
2019-04-29T02:10:22.640Z,100.00
2019-04-29T02:12:51.072Z,100.00
2019-04-29T02:15:19.554Z,100.00
2019-04-29T02:17:47.983Z,100.00
2019-04-29T02:20:16.387Z,100.00
2019-04-29T02:22:49.458Z,100.00
2019-04-29T02:25:22.345Z,100.00
2019-04-29T02:27:50.782Z,100.00
2019-04-29T02:30:46.882Z,100.00
2019-04-29T02:33:15.378Z,100.00
2019-04-29T02:35:43.901Z,100.00
2019-04-29T02:38:14.062Z,100.00
2019-04-29T02:40:56.004Z,100.00
2019-04-29T02:43:26.075Z,100.00
2019-04-29T02:45:54.483Z,100.00
2019-04-29T02:48:22.914Z,100.00
2019-04-29T02:50:51.326Z,100.00
2019-04-29T02:53:19.717Z,100.00
2019-04-29T02:55:49.794Z,100.00
2019-04-29T02:58:19.853Z,100.00
2019-04-29T03:01:06.167Z,100.00
2019-04-29T03:03:39.069Z,100.00
2019-04-29T03:06:07.577Z,100.00
2019-04-29T03:08:35.981Z,100.00
2019-04-29T03:11:04.494Z,100.00
2019-04-29T03:13:32.896Z,100.00
2019-04-29T03:16:01.511Z,100.00
2019-04-29T03:18:31.701Z,100.00
2019-04-29T03:21:11.016Z,100.00
2019-04-29T03:23:39.417Z,100.00
2019-04-29T03:26:07.850Z,100.00
2019-04-29T03:28:36.254Z,100.00
2019-04-29T03:31:04.765Z,100.00
2019-04-29T03:33:33.163Z,100.00
2019-04-29T03:36:01.609Z,100.00
2019-04-29T03:38:30.014Z,100.00
2019-04-29T03:40:58.513Z,100.00
2019-04-29T03:43:26.995Z,100.00
2019-04-29T03:45:55.443Z,100.00
2019-04-29T03:48:23.932Z,100.00
2019-04-29T03:50:52.355Z,100.00
2019-04-29T03:53:20.762Z,100.00
2019-04-29T03:55:50.840Z,100.00
2019-04-29T03:58:19.247Z,100.00
2019-04-29T04:00:49.324Z,100.00
2019-04-29T04:03:22.336Z,100.00
2019-04-29T04:06:07.761Z,100.00
2019-04-29T04:08:37.806Z,100.00
2019-04-29T04:11:06.405Z,100.00
2019-04-29T04:13:34.798Z,100.00
2019-04-29T04:16:04.009Z,100.00
2019-04-29T04:18:34.052Z,100.00
2019-04-29T04:21:02.495Z,100.00
2019-04-29T04:23:30.906Z,100.00
2019-04-29T04:25:59.415Z,100.00
2019-04-29T04:28:27.828Z,100.00
2019-04-29T04:30:56.277Z,100.00
2019-04-29T04:33:24.673Z,100.00
2019-04-29T04:35:53.177Z,100.00
2019-04-29T04:38:21.584Z,100.00
2019-04-29T04:40:54.556Z,100.00
2019-04-29T04:43:22.963Z,100.00
2019-04-29T04:45:51.399Z,100.00
2019-04-29T04:48:19.804Z,100.00
2019-04-29T04:50:48.240Z,100.00
2019-04-29T04:53:16.648Z,100.00
2019-04-29T04:55:47.703Z,100.00
2019-04-29T04:58:16.115Z,100.00
2019-04-29T05:00:44.523Z,100.00
2019-04-29T05:03:12.963Z,100.00
2019-04-29T05:05:42.829Z,100.00
2019-04-29T05:08:11.350Z,100.00
2019-04-29T05:10:39.754Z,100.00
2019-04-29T05:13:08.194Z,100.00
2019-04-29T05:15:36.599Z,100.00
2019-04-29T05:18:05.112Z,100.00
2019-04-29T05:20:33.517Z,100.00
2019-04-29T05:23:01.964Z,100.00
2019-04-29T05:25:31.319Z,100.00
2019-04-29T05:27:59.886Z,100.00
2019-04-29T05:30:28.360Z,100.00
2019-04-29T05:32:56.866Z,100.00
2019-04-29T05:35:26.980Z,100.00
2019-04-29T05:37:59.564Z,100.00
2019-04-29T05:40:38.427Z,100.00
2019-04-29T05:43:09.927Z,100.00
2019-04-29T05:45:46.196Z,100.00
2019-04-29T05:48:17.459Z,100.00
2019-04-29T05:51:03.840Z,100.00
2019-04-29T05:53:42.537Z,100.00
2019-04-29T05:56:10.946Z,100.00
2019-04-29T05:58:39.651Z,100.00
2019-04-29T06:01:09.877Z,100.00
2019-04-29T06:03:39.759Z,100.00
2019-04-29T06:06:08.298Z,100.00
2019-04-29T06:08:39.107Z,100.00
2019-04-29T06:11:06.862Z,100.00
2019-04-29T06:13:35.300Z,100.00
2019-04-29T06:16:03.779Z,100.00
2019-04-29T06:18:32.190Z,100.00
2019-04-29T06:21:08.756Z,100.00
2019-04-29T06:23:30.751Z,100.00
2019-04-29T06:25:59.185Z,100.00
2019-04-29T06:28:28.182Z,100.00
2019-04-29T06:30:56.702Z,100.00
2019-04-29T06:33:28.993Z,100.00
2019-04-29T06:35:57.022Z,100.00
2019-04-29T06:38:25.475Z,100.00
2019-04-29T06:40:53.902Z,100.00
2019-04-29T06:43:24.471Z,100.00
2019-04-29T06:45:52.464Z,100.00
2019-04-29T06:48:20.869Z,100.00
2019-04-29T06:50:49.854Z,100.00
2019-04-29T06:53:21.531Z,100.00
2019-04-29T06:55:48.480Z,100.00
2019-04-29T06:58:16.871Z,100.00
2019-04-29T07:00:45.305Z,100.00
2019-04-29T07:03:13.715Z,100.00
2019-04-29T07:05:42.149Z,100.00
2019-04-29T07:08:10.564Z,100.00
2019-04-29T07:10:39.002Z,100.00
2019-04-29T07:13:07.409Z,100.00
2019-04-29T07:15:35.913Z,100.00
2019-04-29T07:18:04.763Z,100.00
2019-04-29T07:20:37.178Z,100.00
2019-04-29T07:23:03.332Z,100.00
2019-04-29T07:25:31.745Z,100.00
2019-04-29T07:28:00.177Z,100.00
2019-04-29T07:30:29.456Z,100.00
2019-04-29T07:32:58.102Z,100.00
2019-04-29T07:35:26.505Z,100.00
2019-04-29T07:37:54.950Z,100.00
2019-04-29T07:40:23.428Z,100.00
2019-04-29T07:42:51.864Z,100.00
2019-04-29T07:45:43.645Z,100.00
2019-04-29T07:48:05.776Z,100.00
2019-04-29T07:50:31.495Z,100.00
2019-04-29T07:52:59.934Z,100.00
2019-04-29T07:55:30.787Z,100.00
2019-04-29T07:57:58.504Z,100.00
2019-04-29T08:00:34.552Z,100.00
2019-04-29T08:03:04.526Z,100.00
2019-04-29T08:05:33.008Z,100.00
2019-04-29T08:08:01.612Z,100.00
2019-04-29T08:10:30.079Z,100.00
2019-04-29T08:12:59.661Z,100.00
2019-04-29T08:15:31.721Z,100.00
2019-04-29T08:18:06.395Z,100.00
2019-04-29T08:20:28.764Z,100.00
2019-04-29T08:22:58.433Z,100.00
2019-04-29T08:25:27.346Z,100.00
2019-04-29T08:27:55.793Z,100.00
2019-04-29T08:30:24.208Z,100.00
2019-04-29T08:32:52.648Z,100.00
2019-04-29T08:35:21.065Z,100.00
2019-04-29T08:37:49.522Z,100.00
2019-04-29T08:40:18.804Z,100.00
2019-04-29T08:42:54.583Z,100.00
2019-04-29T08:45:24.627Z,100.00
2019-04-29T08:47:53.903Z,100.00
2019-04-29T08:50:22.338Z,100.00
2019-04-29T08:52:50.753Z,100.00
2019-04-29T08:55:19.518Z,100.00
2019-04-29T08:57:47.979Z,100.00
2019-04-29T09:00:16.753Z,100.00
2019-04-29T09:02:47.351Z,100.00
2019-04-29T09:05:15.561Z,100.00
2019-04-29T09:07:44.037Z,100.00
2019-04-29T09:10:12.718Z,100.00
2019-04-29T09:12:41.204Z,100.00
2019-04-29T09:15:10.275Z,100.00
2019-04-29T09:17:38.684Z,100.00
2019-04-29T09:20:07.561Z,100.00
2019-04-29T09:22:37.608Z,100.00
2019-04-29T09:25:11.553Z,100.00
2019-04-29T09:27:45.010Z,100.00
2019-04-29T09:30:13.662Z,100.00
2019-04-29T09:32:42.069Z,100.00
2019-04-29T09:35:10.784Z,100.00
2019-04-29T09:37:39.195Z,100.00
2019-04-29T09:40:09.337Z,100.00
2019-04-29T09:42:45.520Z,100.00
2019-04-29T09:45:14.690Z,100.00
2019-04-29T09:47:44.075Z,100.00
2019-04-29T09:50:12.982Z,100.00
2019-04-29T09:52:41.476Z,100.00
2019-04-29T09:55:10.170Z,100.00
2019-04-29T09:57:38.580Z,100.00
2019-04-29T10:00:09.727Z,100.00
2019-04-29T10:02:39.771Z,100.00
2019-04-29T10:05:16.591Z,100.00
2019-04-29T10:07:45.075Z,100.00
2019-04-29T10:10:13.655Z,100.00
2019-04-29T10:12:42.092Z,100.00
2019-04-29T10:15:12.478Z,100.00
2019-04-29T10:17:45.814Z,100.00
2019-04-29T10:20:20.295Z,100.00
2019-04-29T10:22:50.188Z,100.00
2019-04-29T10:25:19.465Z,100.00
2019-04-29T10:27:47.905Z,100.00
2019-04-29T10:30:18.432Z,100.00
2019-04-29T10:32:46.931Z,100.00
2019-04-29T10:35:15.617Z,100.00
2019-04-29T10:37:44.038Z,96.99
2019-04-29T10:40:20.494Z,94.43
2019-04-29T10:42:50.564Z,98.14
2019-04-29T10:45:23.169Z,98.78
2019-04-29T10:47:59.138Z,95.48
2019-04-29T10:50:30.351Z,97.56
2019-04-29T10:52:59.060Z,97.26
2019-04-29T10:55:30.060Z,94.51
2019-04-29T10:57:57.750Z,95.86
2019-04-29T11:01:03.120Z,92.75
2019-04-29T11:03:31.552Z,94.19
2019-04-29T11:06:01.771Z,93.19
2019-04-29T11:08:33.819Z,90.54
2019-04-29T11:11:02.700Z,91.17
2019-04-29T11:13:31.335Z,93.48
2019-04-29T11:15:59.737Z,93.25
2019-04-29T11:18:28.167Z,91.77
2019-04-29T11:20:56.566Z,94.93
2019-04-29T11:23:32.440Z,92.26
2019-04-29T11:26:02.545Z,92.40
2019-04-29T11:28:32.689Z,89.14
2019-04-29T11:31:01.239Z,89.27
2019-04-29T11:33:31.371Z,85.90
2019-04-29T11:36:07.282Z,87.10
2019-04-29T11:38:38.296Z,86.92
2019-04-29T11:41:05.980Z,85.76
2019-04-29T11:43:34.776Z,84.38
2019-04-29T11:46:03.180Z,85.04
2019-04-29T11:48:31.606Z,84.76
2019-04-29T11:51:04.124Z,88.35
2019-04-29T11:53:32.621Z,84.98
2019-04-29T11:56:01.030Z,87.98
2019-04-29T11:58:47.235Z,85.47
2019-04-29T12:01:17.279Z,86.84
2019-04-29T12:03:51.381Z,85.79
2019-04-29T12:06:21.086Z,83.34
2019-04-29T12:08:53.085Z,82.80
2019-04-29T12:11:20.861Z,78.83
2019-04-29T12:13:53.866Z,80.12
2019-04-29T12:16:26.583Z,82.62
2019-04-29T12:19:11.711Z,84.35
2019-04-29T12:21:42.099Z,82.09
2019-04-29T12:24:10.805Z,81.86
2019-04-29T12:26:43.183Z,79.00
2019-04-29T12:29:09.332Z,80.25
2019-04-29T12:31:44.885Z,79.22
2019-04-29T12:34:26.864Z,81.67
2019-04-29T12:36:56.854Z,79.17
2019-04-29T12:39:43.476Z,81.48
2019-04-29T12:42:24.134Z,76.47
2019-04-29T12:44:56.628Z,76.24
2019-04-29T12:47:27.256Z,80.94
2019-04-29T12:49:55.779Z,80.52
2019-04-29T12:52:24.255Z,79.44
2019-04-29T12:54:52.683Z,77.11
2019-04-29T12:57:23.568Z,77.91
2019-04-29T12:59:54.350Z,78.76
2019-04-29T13:02:24.215Z,76.56
2019-04-29T13:04:54.833Z,77.74
2019-04-29T13:07:30.319Z,75.31
2019-04-29T13:10:06.989Z,74.79
2019-04-29T13:12:39.779Z,75.44
2019-04-29T13:15:20.533Z,74.05
2019-04-29T13:18:02.828Z,72.03
2019-04-29T13:20:20.798Z,75.35
2019-04-29T13:22:49.264Z,74.50
2019-04-29T13:25:19.696Z,76.80
2019-04-29T13:27:47.962Z,76.60
2019-04-29T13:30:16.551Z,76.72
2019-04-29T13:32:44.938Z,78.17
2019-04-29T13:35:13.777Z,79.80
2019-04-29T13:37:42.179Z,80.20
2019-04-29T13:40:12.229Z,78.17
2019-04-29T13:42:48.543Z,78.23
2019-04-29T13:45:13.973Z,78.98
2019-04-29T13:47:56.229Z,77.87
2019-04-29T13:50:38.707Z,78.14
2019-04-29T13:52:59.031Z,80.55
2019-04-29T13:55:47.352Z,75.75
2019-04-29T13:57:57.589Z,75.65
2019-04-29T14:00:27.702Z,80.22
2019-04-29T14:02:59.108Z,78.86
2019-04-29T14:05:32.530Z,78.54
2019-04-29T14:07:59.754Z,75.59
2019-04-29T14:10:28.160Z,76.09
2019-04-29T14:13:09.064Z,75.47
2019-04-29T14:15:29.687Z,74.95
2019-04-29T14:17:56.913Z,76.95
2019-04-29T14:20:25.318Z,74.76
2019-04-29T14:22:54.419Z,74.29
2019-04-29T14:25:22.827Z,74.79
2019-04-29T14:27:51.266Z,75.31
2019-04-29T14:30:21.275Z,74.49
2019-04-29T14:32:51.427Z,74.82
2019-04-29T14:35:36.096Z,75.00
2019-04-29T14:38:05.115Z,72.67
2019-04-29T14:40:33.702Z,71.85
2019-04-29T14:43:28.605Z,71.26
2019-04-29T14:45:54.911Z,71.73
2019-04-29T14:48:41.715Z,74.55
2019-04-29T14:51:01.531Z,71.90
2019-04-29T14:53:29.964Z,70.49
2019-04-29T14:55:58.368Z,71.56
2019-04-29T14:58:26.811Z,71.06
2019-04-29T15:00:56.921Z,74.24
2019-04-29T15:03:27.050Z,72.44
2019-04-29T15:05:55.554Z,72.63
2019-04-29T15:08:23.990Z,72.61
2019-04-29T15:10:53.823Z,72.71
2019-04-29T15:13:23.783Z,74.34
2019-04-29T15:16:04.878Z,72.94
2019-04-29T15:18:47.249Z,73.17
2019-04-29T15:21:06.374Z,72.10
2019-04-29T15:23:35.294Z,72.57
2019-04-29T15:26:03.696Z,70.89
2019-04-29T15:28:33.774Z,70.20
2019-04-29T15:31:02.247Z,70.27
2019-04-29T15:33:34.743Z,67.94
2019-04-29T15:36:01.664Z,68.33
2019-04-29T15:38:30.265Z,71.26
2019-04-29T15:40:58.693Z,74.02
2019-04-29T15:43:45.620Z,73.13
2019-04-29T15:45:57.245Z,72.92
2019-04-29T15:48:25.650Z,73.13
2019-04-29T15:50:54.090Z,73.71
2019-04-29T15:53:22.498Z,73.85
2019-04-29T15:55:59.545Z,72.66
2019-04-29T15:58:22.490Z,71.20
2019-04-29T16:00:51.220Z,70.88
2019-04-29T16:03:20.561Z,70.63
2019-04-29T16:06:10.991Z,70.85
2019-04-29T16:08:29.586Z,70.85
2019-04-29T16:11:15.991Z,70.62
2019-04-29T16:13:48.152Z,70.66
2019-04-29T16:16:14.549Z,70.43
2019-04-29T16:18:42.959Z,71.58
2019-04-29T16:21:11.398Z,71.38
2019-04-29T16:23:40.354Z,70.87
2019-04-29T16:26:08.821Z,72.27
2019-04-29T16:28:40.160Z,72.04
2019-04-29T16:31:12.049Z,70.91
2019-04-29T16:33:37.510Z,72.12
2019-04-29T16:36:06.366Z,72.83
2019-04-29T16:38:34.921Z,74.54
2019-04-29T16:41:04.996Z,74.26
2019-04-29T16:43:35.266Z,73.82
2019-04-29T16:46:05.380Z,74.87
2019-04-29T16:48:33.850Z,75.46
2019-04-29T16:51:06.670Z,75.50
2019-04-29T16:53:32.428Z,74.82
2019-04-29T16:56:00.834Z,75.04
2019-04-29T16:58:29.267Z,75.41
2019-04-29T17:00:57.673Z,77.49
2019-04-29T17:03:26.107Z,78.50
2019-04-29T17:05:54.510Z,77.69
2019-04-29T17:08:24.576Z,79.32
2019-04-29T17:11:11.910Z,79.48
2019-04-29T17:13:40.187Z,79.52
2019-04-29T17:16:10.228Z,80.24
2019-04-29T17:18:38.660Z,81.03
2019-04-29T17:21:07.565Z,81.42
2019-04-29T17:23:36.064Z,80.92
2019-04-29T17:26:04.516Z,81.73
2019-04-29T17:28:37.378Z,81.99
2019-04-29T17:31:12.448Z,82.85
2019-04-29T17:33:49.657Z,83.28
2019-04-29T17:36:12.403Z,83.78
2019-04-29T17:38:40.827Z,84.42
2019-04-29T17:41:09.231Z,85.42
2019-04-29T17:43:45.060Z,86.29
2019-04-29T17:46:33.101Z,86.19
2019-04-29T17:49:03.170Z,86.74
2019-04-29T17:51:31.748Z,87.65
2019-04-29T17:54:13.892Z,88.31
2019-04-29T17:56:45.049Z,88.50
2019-04-29T17:59:29.441Z,88.78
2019-04-29T18:02:20.774Z,89.11
2019-04-29T18:04:58.500Z,87.50
2019-04-29T18:07:28.553Z,85.83
2019-04-29T18:10:01.037Z,85.20
2019-04-29T18:12:29.456Z,85.22
2019-04-29T18:14:57.884Z,85.55
2019-04-29T18:17:31.136Z,87.16
2019-04-29T18:20:29.753Z,88.47
2019-04-29T18:22:52.449Z,89.49
2019-04-29T18:25:30.816Z,91.05
2019-04-29T18:28:00.049Z,92.28
2019-04-29T18:30:35.417Z,93.98
2019-04-29T18:32:57.419Z,95.90
2019-04-29T18:35:25.907Z,98.28
2019-04-29T18:37:55.730Z,100.00
2019-04-29T18:40:25.832Z,100.00
2019-04-29T18:42:55.422Z,100.00
2019-04-29T18:45:25.429Z,100.00
2019-04-29T18:47:54.031Z,100.00
2019-04-29T18:50:22.464Z,100.00
2019-04-29T18:52:50.873Z,100.00
2019-04-29T18:55:19.315Z,100.00
2019-04-29T18:57:47.723Z,100.00
2019-04-29T19:00:20.058Z,100.00
2019-04-29T19:02:52.440Z,100.00
2019-04-29T19:05:26.385Z,100.00
2019-04-29T19:08:00.083Z,100.00
2019-04-29T19:10:32.964Z,100.00
2019-04-29T19:12:59.792Z,100.00
2019-04-29T19:15:25.621Z,100.00
2019-04-29T19:18:01.334Z,100.00
2019-04-29T19:20:25.131Z,100.00
2019-04-29T19:23:05.376Z,100.00
2019-04-29T19:25:25.510Z,100.00
2019-04-29T19:27:55.600Z,100.00
2019-04-29T19:30:27.046Z,100.00
2019-04-29T19:33:00.237Z,100.00
2019-04-29T19:35:25.283Z,100.00
2019-04-29T19:37:53.715Z,100.00
2019-04-29T19:40:22.121Z,100.00
2019-04-29T19:42:50.548Z,100.00
2019-04-29T19:45:19.023Z,100.00
2019-04-29T19:47:52.958Z,100.00
2019-04-29T19:50:19.572Z,100.00
2019-04-29T19:52:47.748Z,100.00
2019-04-29T19:55:16.226Z,100.00
2019-04-29T19:57:50.243Z,100.00
2019-04-29T20:00:17.176Z,100.00
2019-04-29T20:02:46.503Z,100.00
2019-04-29T20:05:23.945Z,100.00
2019-04-29T20:07:50.998Z,100.00
2019-04-29T20:10:20.882Z,100.00
2019-04-29T20:12:53.004Z,100.00
2019-04-29T20:15:20.620Z,100.00
2019-04-29T20:18:07.389Z,100.00
2019-04-29T20:20:46.438Z,100.00
2019-04-29T20:23:20.010Z,100.00
2019-04-29T20:25:48.070Z,100.00
2019-04-29T20:28:18.379Z,100.00
2019-04-29T20:30:45.784Z,100.00
2019-04-29T20:33:16.104Z,100.00
2019-04-29T20:35:49.038Z,100.00
2019-04-29T20:38:15.833Z,100.00
2019-04-29T20:40:46.437Z,100.00
2019-04-29T20:43:16.074Z,100.00
2019-04-29T20:45:45.475Z,100.00
2019-04-29T20:48:16.013Z,100.00
2019-04-29T20:50:46.095Z,100.00
2019-04-29T20:53:16.266Z,100.00
2019-04-29T20:55:46.030Z,100.00
2019-04-29T20:58:15.633Z,100.00
2019-04-29T21:00:45.186Z,100.00
2019-04-29T21:03:13.875Z,100.00
2019-04-29T21:05:48.233Z,100.00
2019-04-29T21:08:16.404Z,100.00
2019-04-29T21:10:44.610Z,100.00
2019-04-29T21:13:30.847Z,100.00
2019-04-29T21:16:12.674Z,100.00
2019-04-29T21:18:47.425Z,100.00
2019-04-29T21:21:11.227Z,100.00
2019-04-29T21:23:39.627Z,100.00
2019-04-29T21:26:08.770Z,100.00
2019-04-29T21:28:41.159Z,100.00
2019-04-29T21:31:11.645Z,100.00
2019-04-29T21:33:37.876Z,100.00
2019-04-29T21:36:17.116Z,100.00
2019-04-29T21:38:48.601Z,100.00
2019-04-29T21:41:21.912Z,100.00
2019-04-29T21:43:53.630Z,100.00
2019-04-29T21:46:28.478Z,100.00
2019-04-29T21:48:52.190Z,100.00
2019-04-29T21:51:20.626Z,100.00
2019-04-29T21:53:49.038Z,100.00
2019-04-29T21:56:17.471Z,100.00
2019-04-29T21:58:45.879Z,100.00
2019-04-29T22:01:15.280Z,100.00
2019-04-29T22:03:43.875Z,100.00
2019-04-29T22:06:12.311Z,100.00
2019-04-29T22:08:40.715Z,100.00
2019-04-29T22:11:09.221Z,100.00
2019-04-29T22:13:39.198Z,100.00
2019-04-29T22:16:11.588Z,100.00
2019-04-29T22:18:38.081Z,100.00
2019-04-29T22:21:09.870Z,100.00
2019-04-29T22:23:36.914Z,100.00
2019-04-29T22:26:05.425Z,100.00
2019-04-29T22:28:35.082Z,100.00
2019-04-29T22:31:05.402Z,100.00
2019-04-29T22:33:34.915Z,100.00
2019-04-29T22:36:05.365Z,100.00
2019-04-29T22:38:35.848Z,100.00
2019-04-29T22:41:06.009Z,100.00
2019-04-29T22:43:40.236Z,100.00
2019-04-29T22:46:10.558Z,100.00
2019-04-29T22:48:40.600Z,100.00
2019-04-29T22:51:10.055Z,100.00
2019-04-29T22:53:40.052Z,100.00
2019-04-29T22:56:14.118Z,100.00
2019-04-29T22:58:43.933Z,100.00
2019-04-29T23:01:10.025Z,100.00
2019-04-29T23:03:38.845Z,100.00
2019-04-29T23:06:08.481Z,100.00
2019-04-29T23:08:38.242Z,100.00
2019-04-29T23:11:06.756Z,100.00
2019-04-29T23:13:35.466Z,100.00
2019-04-29T23:16:05.329Z,100.00
2019-04-29T23:18:42.188Z,100.00
2019-04-29T23:21:11.081Z,100.00
2019-04-29T23:23:45.407Z,100.00
2019-04-29T23:26:14.847Z,100.00
2019-04-29T23:28:45.742Z,100.00
2019-04-29T23:31:14.303Z,100.00
2019-04-29T23:33:42.738Z,100.00
2019-04-29T23:36:14.262Z,100.00
2019-04-29T23:38:42.858Z,100.00
2019-04-29T23:41:11.432Z,100.00
2019-04-29T23:43:39.943Z,100.00
2019-04-29T23:46:08.351Z,100.00
2019-04-29T23:48:39.436Z,100.00
2019-04-29T23:51:06.921Z,100.00
2019-04-29T23:53:35.358Z,100.00
2019-04-29T23:56:05.716Z,100.00
2019-04-29T23:58:47.748Z,100.00
